createdAt,value
2017-09-11T00:00:32.247Z,998.38
2017-09-11T00:01:41.897Z,998.37
2017-09-11T00:02:52.152Z,998.37
2017-09-11T00:04:02.399Z,998.35
2017-09-11T00:05:12.346Z,998.35
2017-09-11T00:06:22.850Z,998.33
2017-09-11T00:07:33.095Z,998.33
2017-09-11T00:08:42.719Z,998.33
2017-09-11T00:09:52.984Z,998.32
2017-09-11T00:11:02.934Z,998.34
2017-09-11T00:12:13.428Z,998.31
2017-09-11T00:13:23.379Z,998.29
2017-09-11T00:14:33.634Z,998.31
2017-09-11T00:15:43.908Z,998.27
2017-09-11T00:16:54.159Z,998.27
2017-09-11T00:18:05.144Z,998.32
2017-09-11T00:19:15.420Z,998.27
2017-09-11T00:20:25.670Z,998.29
2017-09-11T00:21:35.920Z,998.29
2017-09-11T00:22:46.172Z,998.34
2017-09-11T00:23:56.371Z,998.31
2017-09-11T00:25:06.669Z,998.32
2017-09-11T00:26:16.929Z,998.28
2017-09-11T00:27:26.865Z,998.31
2017-09-11T00:28:37.116Z,998.34
2017-09-11T00:29:47.665Z,998.33
2017-09-11T00:30:57.918Z,998.35
2017-09-11T00:32:07.851Z,998.31
2017-09-11T00:33:17.775Z,998.3
2017-09-11T00:34:28.016Z,998.29
2017-09-11T00:35:38.508Z,998.32
2017-09-11T00:36:48.442Z,998.27
2017-09-11T00:37:58.693Z,998.32
2017-09-11T00:39:08.622Z,998.27
2017-09-11T00:40:18.564Z,998.29
2017-09-11T00:41:29.126Z,998.26
2017-09-11T00:42:39.096Z,998.24
2017-09-11T00:43:49.335Z,998.22
2017-09-11T00:44:59.271Z,998.21
2017-09-11T00:46:09.513Z,998.17
2017-09-11T00:47:20.013Z,998.16
2017-09-11T00:48:29.944Z,998.2
2017-09-11T00:49:39.889Z,998.18
2017-09-11T00:50:50.134Z,998.22
2017-09-11T00:52:00.400Z,998.1
2017-09-11T00:53:10.898Z,998.11
2017-09-11T00:54:20.836Z,998.15
2017-09-11T00:55:31.094Z,998.09
2017-09-11T00:56:41.342Z,998.08
2017-09-11T00:57:51.597Z,998.09
2017-09-11T00:59:02.106Z,998.07
2017-09-11T01:00:12.364Z,998
2017-09-11T01:01:22.292Z,998.03
2017-09-11T01:02:32.233Z,998.06
2017-09-11T01:03:42.506Z,998.04
2017-09-11T01:04:52.689Z,998.03
2017-09-11T01:06:02.623Z,998.02
2017-09-11T01:07:12.561Z,997.99
2017-09-11T01:08:22.812Z,998.05
2017-09-11T01:09:33.062Z,998.07
2017-09-11T01:10:43.560Z,998.02
2017-09-11T01:11:53.816Z,998.01
2017-09-11T01:13:04.074Z,997.97
2017-09-11T01:14:14.320Z,997.97
2017-09-11T01:15:24.581Z,997.96
2017-09-11T01:16:34.449Z,997.98
2017-09-11T01:17:44.377Z,997.97
2017-09-11T01:18:54.302Z,997.92
2017-09-11T01:20:04.556Z,997.95
2017-09-11T01:21:14.494Z,997.92
2017-09-11T01:22:24.686Z,997.92
2017-09-11T01:23:34.640Z,997.9
2017-09-11T01:24:44.922Z,997.87
2017-09-11T01:25:55.168Z,997.9
2017-09-11T01:27:05.429Z,997.89
2017-09-11T01:28:15.622Z,997.88
2017-09-11T01:29:25.559Z,997.85
2017-09-11T01:30:35.489Z,997.9
2017-09-11T01:31:45.761Z,997.89
2017-09-11T01:32:56.020Z,997.86
2017-09-11T01:34:06.205Z,997.81
2017-09-11T01:35:16.140Z,997.82
2017-09-11T01:36:26.390Z,997.79
2017-09-11T01:37:36.321Z,997.8
2017-09-11T01:38:46.249Z,997.79
2017-09-11T01:39:56.436Z,997.8
2017-09-11T01:41:06.691Z,997.74
2017-09-11T01:42:16.626Z,997.79
2017-09-11T01:43:26.881Z,997.77
2017-09-11T01:44:37.139Z,997.76
2017-09-11T01:45:47.637Z,997.78
2017-09-11T01:46:57.576Z,997.79
2017-09-11T01:48:07.819Z,997.77
2017-09-11T01:49:18.063Z,997.78
2017-09-11T01:50:27.990Z,997.75
2017-09-11T01:51:38.491Z,997.74
2017-09-11T01:52:48.110Z,997.76
2017-09-11T01:53:58.045Z,997.71
2017-09-11T01:55:07.982Z,997.74
2017-09-11T01:56:17.920Z,997.68
2017-09-11T01:57:28.099Z,997.65
2017-09-11T01:58:38.342Z,997.69
2017-09-11T01:59:48.606Z,997.67
2017-09-11T02:00:58.549Z,997.66
2017-09-11T02:02:08.808Z,997.67
2017-09-11T02:03:19.000Z,997.71
2017-09-11T02:04:29.247Z,997.72
2017-09-11T02:05:39.551Z,997.72
2017-09-11T02:06:49.478Z,997.71
2017-09-11T02:07:59.409Z,997.69
2017-09-11T02:09:09.909Z,997.68
2017-09-11T02:10:19.844Z,997.65
2017-09-11T02:11:29.777Z,997.63
2017-09-11T02:12:39.704Z,997.63
2017-09-11T02:13:49.950Z,997.63
2017-09-11T02:15:00.125Z,997.63
2017-09-11T02:16:10.381Z,997.61
2017-09-11T02:17:20.638Z,997.57
2017-09-11T02:18:30.917Z,997.52
2017-09-11T02:19:41.178Z,997.51
2017-09-11T02:20:51.052Z,997.47
2017-09-11T02:22:00.980Z,997.45
2017-09-11T02:23:10.908Z,997.51
2017-09-11T02:24:21.158Z,997.45
2017-09-11T02:25:31.097Z,997.47
2017-09-11T02:26:40.966Z,997.48
2017-09-11T02:27:51.215Z,997.45
2017-09-11T02:29:01.478Z,997.41
2017-09-11T02:30:11.729Z,997.42
2017-09-11T02:31:21.983Z,997.41
2017-09-11T02:32:32.171Z,997.42
2017-09-11T02:33:42.421Z,997.36
2017-09-11T02:34:52.675Z,997.37
2017-09-11T02:36:02.926Z,997.37
2017-09-11T02:37:13.175Z,997.33
2017-09-11T02:38:23.365Z,997.31
2017-09-11T02:39:33.621Z,997.29
2017-09-11T02:40:43.568Z,997.28
2017-09-11T02:41:52.877Z,997.27
2017-09-11T02:43:03.129Z,997.3
2017-09-11T02:44:13.310Z,997.29
2017-09-11T02:45:23.250Z,997.27
2017-09-11T02:46:33.499Z,997.23
2017-09-11T02:47:43.125Z,997.2
2017-09-11T02:48:53.388Z,997.22
2017-09-11T02:50:03.575Z,997.26
2017-09-11T02:51:13.512Z,997.21
2017-09-11T02:52:23.776Z,997.24
2017-09-11T02:53:33.741Z,997.22
2017-09-11T02:54:44.003Z,997.2
2017-09-11T02:55:54.494Z,997.21
2017-09-11T02:57:04.741Z,997.21
2017-09-11T02:58:14.989Z,997.17
2017-09-11T02:59:24.928Z,997.17
2017-09-11T03:00:34.868Z,997.15
2017-09-11T03:01:45.356Z,997.16
2017-09-11T03:02:55.621Z,997.14
2017-09-11T03:04:05.871Z,997.15
2017-09-11T03:05:16.120Z,997.18
2017-09-11T03:06:26.380Z,997.16
2017-09-11T03:07:36.303Z,997.19
2017-09-11T03:08:46.567Z,997.2
2017-09-11T03:09:56.827Z,997.18
2017-09-11T03:11:07.084Z,997.16
2017-09-11T03:12:17.331Z,997.15
2017-09-11T03:13:27.821Z,997.2
2017-09-11T03:14:38.065Z,997.12
2017-09-11T03:15:48.013Z,997.14
2017-09-11T03:16:57.941Z,997.15
2017-09-11T03:18:07.879Z,997.08
2017-09-11T03:19:18.060Z,997.09
2017-09-11T03:20:28.333Z,997.06
2017-09-11T03:21:38.260Z,997.06
2017-09-11T03:22:48.195Z,996.99
2017-09-11T03:23:58.128Z,996.99
2017-09-11T03:25:08.624Z,996.95
2017-09-11T03:26:18.233Z,996.95
2017-09-11T03:27:28.475Z,996.96
2017-09-11T03:28:38.422Z,996.99
2017-09-11T03:29:48.670Z,996.97
2017-09-11T03:30:58.858Z,996.99
2017-09-11T03:32:09.113Z,996.95
2017-09-11T03:33:19.373Z,996.89
2017-09-11T03:34:29.340Z,996.87
2017-09-11T03:35:39.598Z,996.89
2017-09-11T03:36:50.099Z,996.82
2017-09-11T03:38:00.364Z,996.75
2017-09-11T03:39:10.294Z,996.77
2017-09-11T03:40:20.539Z,996.77
2017-09-11T03:41:30.795Z,996.79
2017-09-11T03:42:41.339Z,996.83
2017-09-11T03:43:51.589Z,996.76
2017-09-11T03:45:01.833Z,996.74
2017-09-11T03:46:12.086Z,996.71
2017-09-11T03:47:22.334Z,996.69
2017-09-11T03:48:32.518Z,996.62
2017-09-11T03:49:42.779Z,996.56
2017-09-11T03:50:52.737Z,996.6
2017-09-11T03:52:02.992Z,996.5
2017-09-11T03:53:12.614Z,996.51
2017-09-11T03:54:23.121Z,996.48
2017-09-11T03:55:33.367Z,996.51
2017-09-11T03:56:43.620Z,996.51
2017-09-11T03:57:53.869Z,996.45
2017-09-11T03:59:04.118Z,996.45
2017-09-11T04:00:14.617Z,996.42
2017-09-11T04:01:24.557Z,996.5
2017-09-11T04:02:34.820Z,996.47
2017-09-11T04:03:45.066Z,996.47
2017-09-11T04:04:54.993Z,996.47
2017-09-11T04:06:05.184Z,996.43
2017-09-11T04:07:15.440Z,996.44
2017-09-11T04:08:25.682Z,996.4
2017-09-11T04:09:35.945Z,996.37
2017-09-11T04:10:46.196Z,996.39
2017-09-11T04:11:56.729Z,996.39
2017-09-11T04:13:06.989Z,996.33
2017-09-11T04:14:16.919Z,996.3
2017-09-11T04:15:26.854Z,996.31
2017-09-11T04:16:36.786Z,996.26
2017-09-11T04:17:46.984Z,996.29
2017-09-11T04:18:57.230Z,996.33
2017-09-11T04:20:07.480Z,996.33
2017-09-11T04:21:17.727Z,996.38
2017-09-11T04:22:27.983Z,996.38
2017-09-11T04:23:38.398Z,996.33
2017-09-11T04:24:48.661Z,996.35
2017-09-11T04:25:58.589Z,996.37
2017-09-11T04:27:08.879Z,996.35
2017-09-11T04:28:19.134Z,996.38
2017-09-11T04:29:29.329Z,996.34
2017-09-11T04:30:39.627Z,996.34
2017-09-11T04:31:49.565Z,996.37
2017-09-11T04:32:59.808Z,996.36
2017-09-11T04:34:10.065Z,996.33
2017-09-11T04:35:19.938Z,996.3
2017-09-11T04:36:29.877Z,996.27
2017-09-11T04:37:40.125Z,996.22
2017-09-11T04:38:50.388Z,996.23
2017-09-11T04:40:00.320Z,996.23
2017-09-11T04:41:10.498Z,996.22
2017-09-11T04:42:20.750Z,996.23
2017-09-11T04:43:30.992Z,996.19
2017-09-11T04:44:40.613Z,996.17
2017-09-11T04:45:50.893Z,996.18
2017-09-11T04:47:01.386Z,996.17
2017-09-11T04:48:11.320Z,996.18
2017-09-11T04:49:21.243Z,996.15
2017-09-11T04:50:31.208Z,996.16
2017-09-11T04:51:41.466Z,996.14
2017-09-11T04:52:51.643Z,996.14
2017-09-11T04:54:01.898Z,996.12
2017-09-11T04:55:12.343Z,996.13
2017-09-11T04:56:22.272Z,996.1
2017-09-11T04:57:32.518Z,996.15
2017-09-11T04:58:43.018Z,996.11
2017-09-11T04:59:52.634Z,996.11
2017-09-11T05:01:02.888Z,996.09
2017-09-11T05:02:13.136Z,996.08
2017-09-11T05:03:23.397Z,996.07
2017-09-11T05:04:33.908Z,996.11
2017-09-11T05:05:43.850Z,996.06
2017-09-11T05:06:54.102Z,996.08
2017-09-11T05:08:04.355Z,996.13
2017-09-11T05:09:14.298Z,996.08
2017-09-11T05:10:24.220Z,996.09
2017-09-11T05:11:34.152Z,996.06
2017-09-11T05:12:44.393Z,996.08
2017-09-11T05:13:54.659Z,996.08
2017-09-11T05:15:04.909Z,996.09
2017-09-11T05:16:15.407Z,996
2017-09-11T05:17:25.028Z,996.01
2017-09-11T05:18:35.282Z,995.98
2017-09-11T05:19:45.544Z,995.96
2017-09-11T05:20:55.802Z,996
2017-09-11T05:22:06.302Z,995.96
2017-09-11T05:23:16.247Z,995.95
2017-09-11T05:24:26.504Z,995.97
2017-09-11T05:25:36.760Z,995.97
2017-09-11T05:26:46.705Z,995.99
2017-09-11T05:27:56.885Z,995.94
2017-09-11T05:29:07.141Z,995.9
2017-09-11T05:30:17.397Z,995.9
2017-09-11T05:31:27.328Z,995.94
2017-09-11T05:32:37.816Z,995.97
2017-09-11T05:33:48.003Z,995.97
2017-09-11T05:34:58.266Z,995.96
2017-09-11T05:36:08.209Z,995.87
2017-09-11T05:37:18.468Z,995.9
2017-09-11T05:38:28.738Z,995.86
2017-09-11T05:39:39.260Z,995.87
2017-09-11T05:40:49.476Z,995.86
2017-09-11T05:41:59.730Z,995.85
2017-09-11T05:43:09.995Z,995.79
2017-09-11T05:44:20.259Z,995.76
2017-09-11T05:45:30.762Z,995.81
2017-09-11T05:46:40.699Z,995.78
2017-09-11T05:47:50.641Z,995.77
2017-09-11T05:49:00.908Z,995.85
2017-09-11T05:50:11.172Z,995.74
2017-09-11T05:51:21.674Z,995.76
2017-09-11T05:52:31.942Z,995.76
2017-09-11T05:53:42.198Z,995.75
2017-09-11T05:54:51.733Z,995.73
2017-09-11T05:56:01.697Z,995.71
2017-09-11T05:57:12.211Z,995.66
2017-09-11T05:58:22.660Z,995.77
2017-09-11T05:59:32.911Z,995.69
2017-09-11T06:00:43.187Z,995.71
2017-09-11T06:01:53.124Z,995.73
2017-09-11T06:03:03.636Z,995.73
2017-09-11T06:04:13.908Z,995.76
2017-09-11T06:05:24.158Z,995.75
2017-09-11T06:06:34.117Z,995.77
2017-09-11T06:07:44.379Z,995.74
2017-09-11T06:08:54.585Z,995.79
2017-09-11T06:10:04.860Z,995.75
2017-09-11T06:11:14.818Z,995.67
2017-09-11T06:12:24.767Z,995.68
2017-09-11T06:13:34.702Z,995.67
2017-09-11T06:14:45.217Z,995.72
2017-09-11T06:15:55.481Z,995.73
2017-09-11T06:17:05.427Z,995.72
2017-09-11T06:18:15.690Z,995.7
2017-09-11T06:19:25.971Z,995.66
2017-09-11T06:20:36.177Z,995.7
2017-09-11T06:21:46.437Z,995.64
2017-09-11T06:22:56.698Z,995.64
2017-09-11T06:24:06.324Z,995.63
2017-09-11T06:25:16.574Z,995.59
2017-09-11T06:26:27.082Z,995.6
2017-09-11T06:27:37.338Z,995.62
2017-09-11T06:28:47.287Z,995.57
2017-09-11T06:29:57.550Z,995.63
2017-09-11T06:31:07.801Z,995.55
2017-09-11T06:32:18.003Z,995.59
2017-09-11T06:33:28.268Z,995.54
2017-09-11T06:34:38.551Z,995.58
2017-09-11T06:35:48.496Z,995.54
2017-09-11T06:36:58.755Z,995.46
2017-09-11T06:38:09.259Z,995.53
2017-09-11T06:39:19.550Z,995.53
2017-09-11T06:40:29.795Z,995.43
2017-09-11T06:41:40.052Z,995.52
2017-09-11T06:42:50.306Z,995.5
2017-09-11T06:44:00.504Z,995.5
2017-09-11T06:45:10.476Z,995.58
2017-09-11T06:46:20.423Z,995.52
2017-09-11T06:47:30.679Z,995.5
2017-09-11T06:48:40.825Z,995.51
2017-09-11T06:49:51.006Z,995.57
2017-09-11T06:51:01.257Z,995.55
2017-09-11T06:52:10.905Z,995.56
2017-09-11T06:53:21.161Z,995.57
2017-09-11T06:54:31.462Z,995.57
2017-09-11T06:55:41.969Z,995.56
2017-09-11T06:56:51.884Z,995.6
2017-09-11T06:58:02.149Z,995.63
2017-09-11T06:59:12.395Z,995.56
2017-09-11T07:00:22.651Z,995.59
2017-09-11T07:01:33.170Z,995.56
2017-09-11T07:02:43.452Z,995.44
2017-09-11T07:03:53.396Z,995.5
2017-09-11T07:05:03.647Z,995.53
2017-09-11T07:06:13.893Z,995.53
2017-09-11T07:07:24.088Z,995.51
2017-09-11T07:08:34.027Z,995.51
2017-09-11T07:09:44.293Z,995.54
2017-09-11T07:10:54.542Z,995.46
2017-09-11T07:12:04.488Z,995.46
2017-09-11T07:13:15.003Z,995.44
2017-09-11T07:14:25.273Z,995.4
2017-09-11T07:15:35.206Z,995.52
2017-09-11T07:16:45.458Z,995.54
2017-09-11T07:17:55.081Z,995.46
2017-09-11T07:19:05.590Z,995.54
2017-09-11T07:20:15.846Z,995.56
2017-09-11T07:21:25.799Z,995.66
2017-09-11T07:22:35.765Z,995.61
2017-09-11T07:23:45.710Z,995.61
2017-09-11T07:24:55.898Z,995.66
2017-09-11T07:26:05.850Z,995.68
2017-09-11T07:27:15.807Z,995.57
2017-09-11T07:28:25.451Z,995.65
2017-09-11T07:29:35.424Z,995.56
2017-09-11T07:30:45.939Z,995.53
2017-09-11T07:31:56.210Z,995.5
2017-09-11T07:33:06.179Z,995.51
2017-09-11T07:34:16.504Z,995.55
2017-09-11T07:35:26.438Z,995.53
2017-09-11T07:36:36.943Z,995.55
2017-09-11T07:37:46.918Z,995.57
2017-09-11T07:38:57.194Z,995.55
2017-09-11T07:40:07.451Z,995.65
2017-09-11T07:41:17.726Z,995.59
2017-09-11T07:42:28.244Z,995.66
2017-09-11T07:43:38.502Z,995.75
2017-09-11T07:44:48.441Z,995.66
2017-09-11T07:45:58.708Z,995.6
2017-09-11T07:47:08.020Z,995.57
2017-09-11T07:48:18.522Z,995.58
2017-09-11T07:49:28.466Z,995.57
2017-09-11T07:50:38.454Z,995.61
2017-09-11T07:51:48.418Z,995.59
2017-09-11T07:52:58.740Z,995.58
2017-09-11T07:54:09.270Z,995.54
2017-09-11T07:55:19.559Z,995.6
2017-09-11T07:56:29.833Z,995.62
2017-09-11T07:57:40.089Z,995.6
2017-09-11T07:58:50.351Z,995.6
2017-09-11T08:00:00.919Z,995.58
2017-09-11T08:01:10.873Z,995.57
2017-09-11T08:02:21.131Z,995.59
2017-09-11T08:03:31.083Z,995.56
2017-09-11T08:04:40.708Z,995.49
2017-09-11T08:05:50.949Z,995.5
2017-09-11T08:07:01.186Z,995.49
2017-09-11T08:08:11.452Z,995.57
2017-09-11T08:09:21.706Z,995.53
2017-09-11T08:10:31.650Z,995.56
2017-09-11T08:11:41.866Z,995.5
2017-09-11T08:12:51.548Z,995.45
2017-09-11T08:14:01.859Z,995.39
2017-09-11T08:15:12.131Z,995.4
2017-09-11T08:16:22.101Z,995.36
2017-09-11T08:17:31.681Z,995.34
2017-09-11T08:18:41.727Z,995.39
2017-09-11T08:19:52.103Z,995.41
2017-09-11T08:21:02.106Z,995.44
2017-09-11T08:22:12.179Z,995.47
2017-09-11T08:23:23.000Z,995.41
2017-09-11T08:24:33.267Z,995.44
2017-09-11T08:25:43.556Z,995.5
2017-09-11T08:26:53.833Z,995.45
2017-09-11T08:28:04.139Z,995.45
2017-09-11T08:29:14.335Z,995.51
2017-09-11T08:30:24.656Z,995.51
2017-09-11T08:31:34.924Z,995.45
2017-09-11T08:32:44.577Z,995.46
2017-09-11T08:33:54.807Z,995.46
2017-09-11T08:35:04.998Z,995.45
2017-09-11T08:36:15.238Z,995.43
2017-09-11T08:37:25.211Z,995.38
2017-09-11T08:38:34.831Z,995.39
2017-09-11T08:39:45.128Z,995.37
2017-09-11T08:40:55.337Z,995.34
2017-09-11T08:42:05.604Z,995.34
2017-09-11T08:43:15.869Z,995.36
2017-09-11T08:44:25.521Z,995.36
2017-09-11T08:45:35.482Z,995.36
2017-09-11T08:46:46.078Z,995.33
2017-09-11T08:47:56.034Z,995.26
2017-09-11T08:49:05.979Z,995.32
2017-09-11T08:50:16.249Z,995.25
2017-09-11T08:51:26.223Z,995.28
2017-09-11T08:52:36.731Z,995.34
2017-09-11T08:53:46.683Z,995.29
2017-09-11T08:54:56.963Z,995.3
2017-09-11T08:56:07.215Z,995.31
2017-09-11T08:57:17.524Z,995.34
2017-09-11T08:58:28.036Z,995.31
2017-09-11T08:59:38.006Z,995.27
2017-09-11T09:00:48.301Z,995.22
2017-09-11T09:01:58.591Z,995.17
2017-09-11T09:03:08.546Z,995.1
2017-09-11T09:04:19.073Z,995.1
2017-09-11T09:05:29.356Z,995
2017-09-11T09:06:39.657Z,995.01
2017-09-11T09:07:49.608Z,994.98
2017-09-11T09:08:59.918Z,995.04
2017-09-11T09:10:10.438Z,995.03
2017-09-11T09:11:20.392Z,995.03
2017-09-11T09:12:30.775Z,995.16
2017-09-11T09:13:41.060Z,995.2
2017-09-11T09:14:51.331Z,995.08
2017-09-11T09:16:01.540Z,995.03
2017-09-11T09:17:11.484Z,995.04
2017-09-11T09:18:21.748Z,994.97
2017-09-11T09:19:31.680Z,994.97
2017-09-11T09:20:41.309Z,994.98
2017-09-11T09:21:51.810Z,994.97
2017-09-11T09:23:02.077Z,994.99
2017-09-11T09:24:12.347Z,994.98
2017-09-11T09:25:22.615Z,994.94
2017-09-11T09:26:32.885Z,994.8
2017-09-11T09:27:43.406Z,994.86
2017-09-11T09:28:53.664Z,994.84
2017-09-11T09:30:03.945Z,994.93
2017-09-11T09:31:14.282Z,994.86
2017-09-11T09:32:24.586Z,994.85
2017-09-11T09:33:35.114Z,994.8
2017-09-11T09:34:45.459Z,994.8
2017-09-11T09:35:55.744Z,994.77
2017-09-11T09:37:06.020Z,994.95
2017-09-11T09:38:16.025Z,994.86
2017-09-11T09:39:26.535Z,994.88
2017-09-11T09:40:36.815Z,994.87
2017-09-11T09:41:46.784Z,994.82
2017-09-11T09:42:57.063Z,994.85
2017-09-11T09:44:07.320Z,994.85
2017-09-11T09:45:17.588Z,994.84
2017-09-11T09:46:27.853Z,994.77
2017-09-11T09:47:38.120Z,994.77
2017-09-11T09:48:48.091Z,994.8
2017-09-11T09:49:58.393Z,994.75
2017-09-11T09:51:08.976Z,994.74
2017-09-11T09:52:19.294Z,994.75
2017-09-11T09:53:29.566Z,994.69
2017-09-11T09:54:39.534Z,994.73
2017-09-11T09:55:49.849Z,994.75
2017-09-11T09:57:00.050Z,994.76
2017-09-11T09:58:10.601Z,994.84
2017-09-11T09:59:20.900Z,994.76
2017-09-11T10:00:31.176Z,994.73
2017-09-11T10:01:41.694Z,994.66
2017-09-11T10:02:52.241Z,994.72
2017-09-11T10:04:02.435Z,994.65
2017-09-11T10:05:12.378Z,994.51
2017-09-11T10:06:22.013Z,994.68
2017-09-11T10:07:31.661Z,994.68
2017-09-11T10:08:42.189Z,994.66
2017-09-11T10:09:52.436Z,994.64
2017-09-11T10:11:02.391Z,994.64
2017-09-11T10:12:12.673Z,994.67
2017-09-11T10:13:22.882Z,994.66
2017-09-11T10:14:33.494Z,994.59
2017-09-11T10:15:43.807Z,994.62
2017-09-11T10:16:53.450Z,994.63
2017-09-11T10:18:03.723Z,994.65
2017-09-11T10:19:14.005Z,994.53
2017-09-11T10:20:24.535Z,994.84
2017-09-11T10:21:34.542Z,994.52
2017-09-11T10:22:44.528Z,994.51
2017-09-11T10:23:54.499Z,994.55
2017-09-11T10:25:04.448Z,994.55
2017-09-11T10:26:14.975Z,994.55
2017-09-11T10:27:25.249Z,994.47
2017-09-11T10:28:35.198Z,994.56
2017-09-11T10:29:45.454Z,994.69
2017-09-11T10:30:55.762Z,994.71
2017-09-11T10:32:06.322Z,994.71
2017-09-11T10:33:16.284Z,994.65
2017-09-11T10:34:26.552Z,994.64
2017-09-11T10:35:36.520Z,994.8
2017-09-11T10:36:46.835Z,994.72
2017-09-11T10:37:57.065Z,994.92
2017-09-11T10:39:07.331Z,994.69
2017-09-11T10:40:17.638Z,994.65
2017-09-11T10:41:27.912Z,994.53
2017-09-11T10:42:37.876Z,994.6
2017-09-11T10:43:48.092Z,994.63
2017-09-11T10:44:58.360Z,994.6
2017-09-11T10:46:08.670Z,994.58
2017-09-11T10:47:18.996Z,994.57
2017-09-11T10:48:29.279Z,994.56
2017-09-11T10:49:39.545Z,994.57
2017-09-11T10:50:49.863Z,994.6
2017-09-11T10:52:00.154Z,994.58
2017-09-11T10:53:10.440Z,994.58
2017-09-11T10:54:20.709Z,994.59
2017-09-11T10:55:31.227Z,994.53
2017-09-11T10:56:41.514Z,994.52
2017-09-11T10:57:51.186Z,994.61
2017-09-11T10:59:01.462Z,994.48
2017-09-11T11:00:11.723Z,994.46
2017-09-11T11:01:22.301Z,994.54
2017-09-11T11:02:32.588Z,994.53
2017-09-11T11:03:43.102Z,994.58
2017-09-11T11:04:53.054Z,994.41
2017-09-11T11:06:03.348Z,994.69
2017-09-11T11:07:13.870Z,994.56
2017-09-11T11:08:24.161Z,994.59
2017-09-11T11:09:34.106Z,994.57
2017-09-11T11:10:44.354Z,994.39
2017-09-11T11:11:54.306Z,994.5
2017-09-11T11:13:04.792Z,994.61
2017-09-11T11:14:14.438Z,994.69
2017-09-11T11:15:24.704Z,994.74
2017-09-11T11:16:34.971Z,994.84
2017-09-11T11:17:45.225Z,994.53
2017-09-11T11:18:56.115Z,994.71
2017-09-11T11:20:06.377Z,994.69
2017-09-11T11:21:16.642Z,994.59
2017-09-11T11:22:26.917Z,994.57
2017-09-11T11:23:37.174Z,994.59
2017-09-11T11:24:47.381Z,994.85
2017-09-11T11:25:57.650Z,994.8
2017-09-11T11:27:07.597Z,994.64
2017-09-11T11:28:17.862Z,994.69
2017-09-11T11:29:27.820Z,994.71
2017-09-11T11:30:38.069Z,994.67
2017-09-11T11:31:48.318Z,994.63
2017-09-11T11:32:57.965Z,994.64
2017-09-11T11:34:08.279Z,994.68
2017-09-11T11:35:18.780Z,994.72
2017-09-11T11:36:28.963Z,994.56
2017-09-11T11:37:39.232Z,994.55
2017-09-11T11:38:49.527Z,994.69
2017-09-11T11:39:59.848Z,994.83
2017-09-11T11:41:10.127Z,994.76
2017-09-11T11:42:20.542Z,994.73
2017-09-11T11:43:31.277Z,994.75
2017-09-11T11:44:41.281Z,995.06
2017-09-11T11:45:51.593Z,994.91
2017-09-11T11:47:01.894Z,994.71
2017-09-11T11:48:12.397Z,994.82
2017-09-11T11:49:22.067Z,994.84
2017-09-11T11:50:32.425Z,994.76
2017-09-11T11:51:42.742Z,994.65
2017-09-11T11:52:52.809Z,994.72
2017-09-11T11:54:03.344Z,994.6
2017-09-11T11:55:13.607Z,994.71
2017-09-11T11:56:23.870Z,994.72
2017-09-11T11:57:34.140Z,994.59
2017-09-11T11:58:44.443Z,994.65
2017-09-11T11:59:55.029Z,994.56
2017-09-11T12:01:04.983Z,994.47
2017-09-11T12:02:15.255Z,994.56
2017-09-11T12:03:25.212Z,994.44
2017-09-11T12:04:35.206Z,994.42
2017-09-11T12:05:45.707Z,994.39
2017-09-11T12:06:55.971Z,994.51
2017-09-11T12:08:05.924Z,994.48
2017-09-11T12:09:15.882Z,994.5
2017-09-11T12:10:26.157Z,994.65
2017-09-11T12:11:36.816Z,994.58
2017-09-11T12:12:47.093Z,994.78
2017-09-11T12:13:56.737Z,994.68
2017-09-11T12:15:07.006Z,994.66
2017-09-11T12:16:17.263Z,994.49
2017-09-11T12:17:27.825Z,994.45
2017-09-11T12:18:38.106Z,994.49
2017-09-11T12:19:48.478Z,994.43
2017-09-11T12:20:58.742Z,994.37
2017-09-11T12:22:08.413Z,994.32
2017-09-11T12:23:18.665Z,994.4
2017-09-11T12:24:28.922Z,994.12
2017-09-11T12:25:38.877Z,994.22
2017-09-11T12:26:49.177Z,994.31
2017-09-11T12:27:59.442Z,994.48
2017-09-11T12:29:10.017Z,994.37
2017-09-11T12:30:20.281Z,994.38
2017-09-11T12:31:30.269Z,994.3
2017-09-11T12:32:40.230Z,994.29
2017-09-11T12:33:50.505Z,994.34
2017-09-11T12:35:01.090Z,994.37
2017-09-11T12:36:10.721Z,994.28
2017-09-11T12:37:20.965Z,994.08
2017-09-11T12:38:30.934Z,994.29
2017-09-11T12:39:40.860Z,994.49
2017-09-11T12:40:51.118Z,994.34
2017-09-11T12:42:01.063Z,994.35
2017-09-11T12:43:11.322Z,994.31
2017-09-11T12:44:21.610Z,994.31
2017-09-11T12:45:31.599Z,994.36
2017-09-11T12:46:42.119Z,994.29
2017-09-11T12:47:52.092Z,994.29
2017-09-11T12:49:01.724Z,994.36
2017-09-11T12:50:11.974Z,994.28
2017-09-11T12:51:21.311Z,994.6
2017-09-11T12:52:32.072Z,994.3
2017-09-11T12:53:42.025Z,994.15
2017-09-11T12:54:52.332Z,994.36
2017-09-11T12:56:02.324Z,994.29
2017-09-11T12:57:12.604Z,994.3
2017-09-11T12:58:23.162Z,994.38
2017-09-11T12:59:33.426Z,994.39
2017-09-11T13:00:43.721Z,994.43
2017-09-11T13:01:53.981Z,994.5
2017-09-11T13:03:03.942Z,994.53
2017-09-11T13:04:14.142Z,994.49
2017-09-11T13:05:24.084Z,994.58
2017-09-11T13:06:34.362Z,994.54
2017-09-11T13:07:44.298Z,994.61
2017-09-11T13:08:54.546Z,994.46
2017-09-11T13:10:04.747Z,994.61
2017-09-11T13:11:14.952Z,994.57
2017-09-11T13:12:24.897Z,994.63
2017-09-11T13:13:35.146Z,994.81
2017-09-11T13:14:45.406Z,994.62
2017-09-11T13:15:55.582Z,994.75
2017-09-11T13:17:05.233Z,994.72
2017-09-11T13:18:15.189Z,994.66
2017-09-11T13:19:25.141Z,994.77
2017-09-11T13:20:35.404Z,994.78
2017-09-11T13:21:45.927Z,994.69
2017-09-11T13:22:55.866Z,994.83
2017-09-11T13:24:05.813Z,994.69
2017-09-11T13:25:15.743Z,994.89
2017-09-11T13:26:25.693Z,994.83
2017-09-11T13:27:36.206Z,994.81
2017-09-11T13:28:46.159Z,994.67
2017-09-11T13:29:56.445Z,994.75
2017-09-11T13:31:06.376Z,994.82
2017-09-11T13:32:16.639Z,994.79
2017-09-11T13:33:27.177Z,994.79
2017-09-11T13:34:37.416Z,994.82
2017-09-11T13:35:47.696Z,994.59
2017-09-11T13:36:57.357Z,994.72
2017-09-11T13:38:07.611Z,994.8
2017-09-11T13:39:18.151Z,994.75
2017-09-11T13:40:28.406Z,994.69
2017-09-11T13:41:38.685Z,994.67
2017-09-11T13:42:48.949Z,994.63
2017-09-11T13:43:58.581Z,994.79
2017-09-11T13:45:09.031Z,994.64
2017-09-11T13:46:19.259Z,994.66
2017-09-11T13:47:29.222Z,994.65
2017-09-11T13:48:39.487Z,994.56
2017-09-11T13:49:49.762Z,994.57
2017-09-11T13:50:59.965Z,994.54
2017-09-11T13:52:09.899Z,994.51
2017-09-11T13:53:20.157Z,994.44
2017-09-11T13:54:30.426Z,994.36
2017-09-11T13:55:40.384Z,994.5
2017-09-11T13:56:50.592Z,994.47
2017-09-11T13:58:00.561Z,994.5
2017-09-11T13:59:10.827Z,994.56
2017-09-11T14:00:21.078Z,994.43
2017-09-11T14:01:31.343Z,994.44
2017-09-11T14:02:41.580Z,994.64
2017-09-11T14:03:51.543Z,994.58
2017-09-11T14:05:01.816Z,994.59
2017-09-11T14:06:12.083Z,994.55
2017-09-11T14:07:22.355Z,994.49
2017-09-11T14:08:32.585Z,994.53
2017-09-11T14:09:42.864Z,994.54
2017-09-11T14:10:53.127Z,994.53
2017-09-11T14:12:03.420Z,994.58
2017-09-11T14:13:13.691Z,994.47
2017-09-11T14:14:23.914Z,994.62
2017-09-11T14:15:34.195Z,994.34
2017-09-11T14:16:44.444Z,994.4
2017-09-11T14:17:54.707Z,994.53
2017-09-11T14:19:04.961Z,994.36
2017-09-11T14:20:15.178Z,994.43
2017-09-11T14:21:25.447Z,994.48
2017-09-11T14:22:35.074Z,994.42
2017-09-11T14:23:45.019Z,994.51
2017-09-11T14:24:54.950Z,994.47
2017-09-11T14:26:05.519Z,994.44
2017-09-11T14:27:15.843Z,994.43
2017-09-11T14:28:26.077Z,994.43
2017-09-11T14:29:36.016Z,994.39
2017-09-11T14:30:46.269Z,994.39
2017-09-11T14:31:56.787Z,994.33
2017-09-11T14:33:07.074Z,994.32
2017-09-11T14:34:17.304Z,994.44
2017-09-11T14:35:26.937Z,994.39
2017-09-11T14:36:37.196Z,994.4
2017-09-11T14:37:47.713Z,994.37
2017-09-11T14:38:57.985Z,994.35